createdAt,value
2019-05-23T00:07:24.674Z,101346.99
2019-05-23T00:15:45.894Z,101343.28
2019-05-23T00:24:07.390Z,101355.55
2019-05-23T00:32:28.515Z,101350.78
2019-05-23T00:40:49.816Z,101355.42
2019-05-23T00:49:11.035Z,101359.24
2019-05-23T00:57:32.506Z,101358.68
2019-05-23T01:05:53.634Z,101346.25
2019-05-23T01:14:15.025Z,101350.12
2019-05-23T01:22:36.581Z,101339.63
2019-05-23T01:30:57.794Z,101349.00
2019-05-23T01:39:18.922Z,101344.97
2019-05-23T01:47:40.056Z,101338.39
2019-05-23T01:56:01.651Z,101340.88
2019-05-23T02:04:23.032Z,101338.39
2019-05-23T02:12:44.147Z,101337.00
2019-05-23T02:21:05.372Z,101330.12
2019-05-23T02:29:26.533Z,101328.05
2019-05-23T02:37:47.667Z,101322.87
2019-05-23T02:46:08.914Z,101313.88
2019-05-23T02:54:30.652Z,101311.78
2019-05-23T03:02:52.066Z,101307.56
2019-05-23T03:11:13.174Z,101297.13
2019-05-23T03:19:34.672Z,101294.66
2019-05-23T03:27:55.804Z,101294.98
2019-05-23T03:36:16.927Z,101289.03
2019-05-23T03:44:38.173Z,101290.08
2019-05-23T03:52:59.314Z,101283.98
2019-05-23T04:01:20.474Z,101280.31
2019-05-23T04:09:41.759Z,101275.65
2019-05-23T04:18:02.983Z,101277.89
2019-05-23T04:26:24.478Z,101274.59
2019-05-23T04:34:45.876Z,101281.33
2019-05-23T04:43:07.279Z,101275.64
2019-05-23T04:51:28.437Z,101276.61
2019-05-23T04:59:50.255Z,101278.77
2019-05-23T05:08:11.451Z,101281.64
2019-05-23T05:16:33.884Z,101282.23
2019-05-23T05:24:54.982Z,101277.55
2019-05-23T05:33:16.133Z,101282.55
2019-05-23T05:41:37.252Z,101280.05
2019-05-23T05:49:58.415Z,101285.35
2019-05-23T05:58:19.530Z,101290.80
2019-05-23T06:06:40.661Z,101290.48
2019-05-23T06:15:02.832Z,101293.95
2019-05-23T06:23:26.513Z,101291.72
2019-05-23T06:31:47.733Z,101290.16
2019-05-23T06:40:09.010Z,101292.24
2019-05-23T06:48:30.125Z,101288.05
2019-05-23T06:56:51.253Z,101285.42
2019-05-23T07:05:12.383Z,101292.38
2019-05-23T07:13:33.898Z,101285.05
2019-05-23T07:21:55.364Z,101286.87
2019-05-23T07:30:16.786Z,101283.37
2019-05-23T07:38:38.352Z,101291.09
2019-05-23T07:46:59.840Z,101281.70
2019-05-23T07:55:21.377Z,101281.75
2019-05-23T08:03:42.800Z,101275.89
2019-05-23T08:12:04.084Z,101277.17
2019-05-23T08:20:25.179Z,101270.16
2019-05-23T08:29:12.569Z,101270.59
2019-05-23T08:37:09.545Z,101267.13
2019-05-23T08:45:30.998Z,101263.22
2019-05-23T08:53:52.161Z,101257.56
2019-05-23T09:02:13.611Z,101250.98
2019-05-23T09:10:34.828Z,101251.59
2019-05-23T09:18:55.989Z,101245.77
2019-05-23T09:27:17.094Z,101242.53
2019-05-23T09:35:38.794Z,101235.89
2019-05-23T09:44:00.010Z,101228.95
2019-05-23T09:52:21.167Z,101228.78
2019-05-23T10:00:42.312Z,101223.05
2019-05-23T10:09:03.842Z,101211.45
2019-05-23T10:17:25.215Z,101200.53
2019-05-23T10:25:46.761Z,101201.45
2019-05-23T10:34:08.188Z,101191.77
2019-05-23T10:42:29.312Z,101183.41
2019-05-23T10:50:50.440Z,101170.17
2019-05-23T10:59:11.604Z,101174.23
2019-05-23T11:07:32.822Z,101162.70
2019-05-23T11:15:54.333Z,101149.97
2019-05-23T11:24:15.482Z,101140.91
2019-05-23T11:32:36.899Z,101137.19
2019-05-23T11:40:58.180Z,101129.23
2019-05-23T11:49:19.371Z,101123.00
2019-05-23T11:57:40.657Z,101124.55
2019-05-23T12:06:05.238Z,101111.15
2019-05-23T12:14:24.600Z,101102.98
2019-05-23T12:22:45.753Z,101101.22
2019-05-23T12:31:07.235Z,101096.88
2019-05-23T12:39:28.341Z,101084.91
2019-05-23T12:47:49.561Z,101091.33
2019-05-23T12:56:10.910Z,101068.88
2019-05-23T13:04:32.173Z,101056.22
2019-05-23T13:12:53.317Z,101063.33
2019-05-23T13:21:14.631Z,101052.12
2019-05-23T13:29:35.734Z,101041.23
2019-05-23T13:37:57.015Z,101032.97
2019-05-23T13:46:18.129Z,101028.84
2019-05-23T13:54:39.240Z,101033.91
2019-05-23T14:03:00.765Z,101021.19
2019-05-23T14:11:22.196Z,101014.88
2019-05-23T14:19:43.322Z,101013.81
2019-05-23T14:28:05.025Z,101008.41
2019-05-23T14:36:30.924Z,101001.34
2019-05-23T14:44:49.693Z,100999.33
2019-05-23T14:53:10.932Z,100992.45
2019-05-23T15:01:32.179Z,100991.12
2019-05-23T15:09:54.213Z,100983.20
2019-05-23T15:18:15.721Z,100968.20
2019-05-23T15:26:36.977Z,100977.61
2019-05-23T15:34:58.223Z,100956.23
2019-05-23T15:43:19.349Z,100956.38
2019-05-23T15:51:40.555Z,100952.78
2019-05-23T16:00:02.041Z,100953.75
2019-05-23T16:08:23.169Z,100948.98
2019-05-23T16:16:44.321Z,100945.81
2019-05-23T16:25:06.255Z,100941.17
2019-05-23T16:33:27.796Z,100943.78
2019-05-23T16:41:49.784Z,100936.73
2019-05-23T16:50:10.897Z,100935.70
2019-05-23T16:58:32.465Z,100941.72
2019-05-23T17:06:53.582Z,100935.26
2019-05-23T17:15:14.746Z,100938.88
2019-05-23T17:23:36.016Z,100929.25
2019-05-23T17:31:57.644Z,100932.15
2019-05-23T17:40:24.706Z,100922.84
2019-05-23T17:48:41.870Z,100923.27
2019-05-23T17:57:04.101Z,100920.23
2019-05-23T18:05:25.401Z,100911.49
2019-05-23T18:13:46.858Z,100902.33
2019-05-23T18:22:08.028Z,100906.80
2019-05-23T18:30:29.262Z,100902.06
2019-05-23T18:38:50.414Z,100898.09
2019-05-23T18:47:11.542Z,100902.03
2019-05-23T18:55:32.999Z,100916.04
2019-05-23T19:03:54.138Z,100917.36
2019-05-23T19:12:15.386Z,100923.79
2019-05-23T19:20:36.873Z,100937.54
2019-05-23T19:28:58.981Z,100941.34
2019-05-23T19:37:20.112Z,100940.27
2019-05-23T19:45:41.272Z,100951.66
2019-05-23T19:54:02.793Z,100961.77
2019-05-23T20:02:24.003Z,100974.33
2019-05-23T20:10:45.491Z,100986.11
2019-05-23T20:19:07.495Z,100989.35
2019-05-23T20:27:29.036Z,100994.86
2019-05-23T20:35:50.571Z,100993.73
2019-05-23T20:44:11.843Z,100992.95
2019-05-23T20:52:33.110Z,100995.05
2019-05-23T21:00:54.616Z,100996.20
2019-05-23T21:09:16.248Z,101001.33
2019-05-23T21:17:37.561Z,100989.66
2019-05-23T21:25:59.117Z,100994.06
2019-05-23T21:34:22.287Z,100994.04
2019-05-23T21:42:47.931Z,100990.63
2019-05-23T21:51:06.216Z,100988.38
2019-05-23T21:59:27.497Z,100984.94
2019-05-23T22:07:48.683Z,100975.90
2019-05-23T22:16:09.867Z,100982.67
2019-05-23T22:24:31.025Z,100977.81
2019-05-23T22:32:52.151Z,100975.10
2019-05-23T22:41:13.381Z,100968.84
2019-05-23T22:49:34.543Z,100978.30
2019-05-23T22:57:56.129Z,100979.16
2019-05-23T23:06:18.315Z,100974.88
2019-05-23T23:14:39.971Z,100967.22
2019-05-23T23:23:01.737Z,100963.16
2019-05-23T23:31:23.840Z,100960.12
2019-05-23T23:39:45.320Z,100958.30
2019-05-23T23:48:06.820Z,100961.02
2019-05-23T23:56:28.056Z,100950.87
